createdAt,value
2022-11-14T00:00:44.723Z,63.93
2022-11-14T00:01:44.583Z,64.13
2022-11-14T00:02:44.731Z,63.93
2022-11-14T00:03:44.662Z,63.90
2022-11-14T00:04:44.641Z,63.93
2022-11-14T00:05:44.538Z,64.03
2022-11-14T00:06:52.332Z,63.93
2022-11-14T00:07:44.935Z,63.93
2022-11-14T00:08:46.189Z,63.63
2022-11-14T00:09:44.514Z,63.63
2022-11-14T00:10:44.607Z,63.53
2022-11-14T00:11:44.454Z,63.83
2022-11-14T00:12:44.486Z,63.53
2022-11-14T00:13:44.609Z,63.63
2022-11-14T00:14:44.430Z,63.73
2022-11-14T00:15:44.466Z,63.63
2022-11-14T00:16:44.591Z,63.53
2022-11-14T00:17:44.473Z,63.73
2022-11-14T00:18:44.967Z,63.53
2022-11-14T00:19:44.369Z,63.63
2022-11-14T00:20:44.413Z,63.83
2022-11-14T00:21:45.049Z,63.73
2022-11-14T00:22:45.445Z,63.73
2022-11-14T00:23:44.330Z,63.63
2022-11-14T00:24:44.274Z,63.63
2022-11-14T00:25:45.236Z,63.63
2022-11-14T00:26:44.468Z,63.63
2022-11-14T00:27:44.878Z,63.73
2022-11-14T00:28:44.519Z,63.53
2022-11-14T00:29:44.204Z,63.73
2022-11-14T00:30:44.188Z,63.43
2022-11-14T00:31:44.202Z,63.83
2022-11-14T00:32:44.275Z,63.73
2022-11-14T00:33:44.180Z,63.83
2022-11-14T00:34:44.458Z,63.53
2022-11-14T00:35:44.212Z,63.43
2022-11-14T00:36:44.096Z,63.63
2022-11-14T00:37:45.557Z,63.63
2022-11-14T00:38:44.129Z,63.63
2022-11-14T00:39:44.066Z,63.73
2022-11-14T00:40:44.326Z,63.63
2022-11-14T00:41:44.050Z,63.53
2022-11-14T00:42:44.206Z,63.63
2022-11-14T00:43:44.138Z,63.43
2022-11-14T00:44:44.139Z,63.33
2022-11-14T00:45:44.007Z,63.33
2022-11-14T00:46:44.071Z,63.33
2022-11-14T00:47:43.954Z,63.43
2022-11-14T00:48:43.968Z,63.63
2022-11-14T00:49:43.930Z,63.23
2022-11-14T00:50:43.976Z,63.23
2022-11-14T00:51:43.907Z,63.63
2022-11-14T00:52:44.029Z,63.43
2022-11-14T00:53:44.397Z,63.43
2022-11-14T00:54:43.883Z,63.53
2022-11-14T00:55:43.830Z,63.63
2022-11-14T00:56:44.123Z,63.63
2022-11-14T00:57:43.807Z,63.53
2022-11-14T00:58:44.130Z,63.63
2022-11-14T00:59:44.498Z,63.53
2022-11-14T01:00:44.176Z,63.53
2022-11-14T01:01:43.756Z,63.63
2022-11-14T01:02:43.843Z,63.63
2022-11-14T01:03:43.789Z,63.23
2022-11-14T01:04:43.812Z,63.23
2022-11-14T01:05:43.798Z,63.43
2022-11-14T01:06:44.071Z,63.53
2022-11-14T01:07:43.680Z,63.33
2022-11-14T01:08:43.805Z,63.43
2022-11-14T01:09:43.652Z,63.43
2022-11-14T01:10:43.805Z,63.33
2022-11-14T01:11:43.615Z,63.13
2022-11-14T01:12:44.144Z,63.36
2022-11-14T01:13:43.856Z,63.26
2022-11-14T01:14:44.227Z,63.03
2022-11-14T01:15:43.544Z,63.36
2022-11-14T01:16:43.860Z,63.26
2022-11-14T01:17:43.562Z,63.46
2022-11-14T01:18:43.533Z,63.13
2022-11-14T01:19:43.839Z,63.36
2022-11-14T01:20:43.561Z,63.26
2022-11-14T01:21:44.939Z,62.96
2022-11-14T01:22:43.650Z,63.06
2022-11-14T01:23:43.471Z,63.36
2022-11-14T01:24:43.551Z,63.46
2022-11-14T01:25:43.423Z,63.26
2022-11-14T01:26:43.495Z,63.26
2022-11-14T01:27:43.395Z,63.06
2022-11-14T01:28:43.539Z,63.06
2022-11-14T01:29:44.078Z,63.26
2022-11-14T01:30:43.342Z,63.17
2022-11-14T01:31:44.801Z,63.06
2022-11-14T01:32:43.367Z,63.17
2022-11-14T01:33:43.787Z,63.26
2022-11-14T01:34:43.557Z,63.06
2022-11-14T01:35:43.310Z,62.96
2022-11-14T01:36:43.608Z,63.17
2022-11-14T01:37:43.259Z,63.06
2022-11-14T01:38:43.284Z,63.06
2022-11-14T01:39:43.222Z,63.06
2022-11-14T01:40:43.776Z,62.76
2022-11-14T01:41:43.244Z,62.86
2022-11-14T01:42:44.148Z,62.86
2022-11-14T01:43:43.212Z,62.96
2022-11-14T01:44:43.248Z,62.96
2022-11-14T01:45:43.286Z,62.66
2022-11-14T01:46:43.294Z,62.96
2022-11-14T01:47:43.137Z,62.96
2022-11-14T01:48:43.107Z,63.06
2022-11-14T01:49:43.113Z,62.96
2022-11-14T01:50:43.276Z,62.96
2022-11-14T01:51:43.093Z,63.17
2022-11-14T01:52:43.149Z,63.06
2022-11-14T01:53:43.057Z,63.17
2022-11-14T01:54:43.272Z,63.17
2022-11-14T01:55:43.274Z,63.17
2022-11-14T01:56:43.307Z,63.17
2022-11-14T01:57:42.977Z,62.76
2022-11-14T01:58:43.042Z,63.17
2022-11-14T01:59:43.003Z,63.17
2022-11-14T02:00:42.936Z,63.06
2022-11-14T02:01:43.068Z,63.17
2022-11-14T02:02:42.954Z,63.06
2022-11-14T02:03:42.921Z,62.96
2022-11-14T02:04:43.241Z,63.06
2022-11-14T02:05:43.224Z,63.06
2022-11-14T02:06:42.883Z,62.96
2022-11-14T02:07:42.853Z,63.17
2022-11-14T02:08:43.009Z,63.06
2022-11-14T02:09:42.811Z,63.17
2022-11-14T02:10:42.895Z,63.17
2022-11-14T02:11:44.311Z,62.96
2022-11-14T02:12:42.861Z,62.96
2022-11-14T02:13:42.766Z,62.76
2022-11-14T02:14:42.792Z,62.86
2022-11-14T02:15:42.810Z,63.06
2022-11-14T02:16:51.736Z,63.06
2022-11-14T02:17:43.818Z,63.17
2022-11-14T02:18:42.696Z,62.96
2022-11-14T02:19:42.664Z,62.86
2022-11-14T02:20:42.726Z,62.96
2022-11-14T02:21:42.711Z,63.17
2022-11-14T02:22:42.657Z,62.96
2022-11-14T02:23:42.724Z,62.76
2022-11-14T02:24:43.308Z,62.86
2022-11-14T02:25:42.593Z,62.96
2022-11-14T02:26:44.132Z,63.17
2022-11-14T02:27:42.620Z,63.17
2022-11-14T02:28:42.555Z,62.86
2022-11-14T02:29:42.742Z,63.17
2022-11-14T02:30:42.584Z,63.17
2022-11-14T02:31:42.501Z,63.36
2022-11-14T02:33:09.313Z,63.17
2022-11-14T02:33:43.540Z,62.86
2022-11-14T02:34:42.532Z,63.06
2022-11-14T02:35:42.618Z,63.17
2022-11-14T02:36:42.458Z,63.06
2022-11-14T02:37:42.435Z,63.06
2022-11-14T02:38:42.471Z,63.26
2022-11-14T02:39:42.473Z,62.86
2022-11-14T02:40:42.507Z,62.96
2022-11-14T02:41:42.655Z,62.86
2022-11-14T02:42:42.372Z,62.86
2022-11-14T02:43:42.347Z,62.96
2022-11-14T02:44:42.432Z,62.86
2022-11-14T02:45:42.323Z,62.66
2022-11-14T02:46:42.320Z,62.76
2022-11-14T02:47:42.409Z,62.96
2022-11-14T02:48:42.284Z,62.96
2022-11-14T02:49:42.361Z,62.96
2022-11-14T02:50:42.333Z,62.96
2022-11-14T02:51:42.252Z,62.76
2022-11-14T02:52:42.448Z,62.76
2022-11-14T02:53:42.407Z,62.76
2022-11-14T02:54:43.174Z,62.96
2022-11-14T02:55:42.193Z,63.06
2022-11-14T02:56:42.221Z,62.76
2022-11-14T02:57:42.161Z,62.96
2022-11-14T02:58:42.157Z,62.86
2022-11-14T02:59:42.811Z,62.76
2022-11-14T03:01:05.949Z,62.86
2022-11-14T03:01:43.262Z,62.76
2022-11-14T03:02:42.114Z,62.86
2022-11-14T03:03:42.075Z,62.99
2022-11-14T03:04:42.111Z,62.66
2022-11-14T03:05:42.396Z,62.66
2022-11-14T03:06:42.209Z,62.66
2022-11-14T03:07:42.059Z,62.59
2022-11-14T03:08:42.379Z,62.76
2022-11-14T03:09:42.410Z,62.56
2022-11-14T03:10:41.980Z,62.76
2022-11-14T03:11:42.373Z,62.59
2022-11-14T03:12:42.024Z,62.70
2022-11-14T03:13:42.386Z,62.79
2022-11-14T03:14:43.595Z,62.89
2022-11-14T03:15:41.904Z,62.70
2022-11-14T03:16:43.371Z,62.89
2022-11-14T03:17:41.966Z,62.70
2022-11-14T03:18:42.371Z,62.79
2022-11-14T03:19:41.914Z,62.89
2022-11-14T03:20:41.863Z,62.79
2022-11-14T03:21:41.835Z,62.89
2022-11-14T03:22:41.806Z,62.79
2022-11-14T03:23:43.164Z,62.89
2022-11-14T03:24:42.005Z,62.99
2022-11-14T03:25:41.803Z,62.89
2022-11-14T03:26:41.811Z,62.96
2022-11-14T03:27:41.745Z,62.89
2022-11-14T03:28:41.791Z,62.89
2022-11-14T03:29:42.035Z,62.99
2022-11-14T03:30:41.694Z,62.99
2022-11-14T03:31:41.702Z,62.89
2022-11-14T03:32:41.687Z,62.76
2022-11-14T03:33:42.346Z,62.79
2022-11-14T03:34:41.631Z,62.89
2022-11-14T03:35:42.032Z,62.79
2022-11-14T03:36:41.732Z,62.89
2022-11-14T03:37:41.634Z,62.59
2022-11-14T03:38:42.136Z,62.79
2022-11-14T03:39:41.561Z,62.89
2022-11-14T03:40:41.732Z,62.89
2022-11-14T03:41:41.760Z,62.70
2022-11-14T03:42:41.538Z,62.99
2022-11-14T03:43:41.668Z,62.79
2022-11-14T03:44:41.534Z,62.89
2022-11-14T03:45:41.482Z,62.59
2022-11-14T03:46:41.504Z,62.79
2022-11-14T03:47:41.982Z,62.59
2022-11-14T03:48:41.459Z,62.79
2022-11-14T03:49:41.720Z,62.89
2022-11-14T03:50:41.459Z,62.79
2022-11-14T03:51:41.422Z,62.79
2022-11-14T03:52:41.435Z,62.79
2022-11-14T03:53:42.427Z,62.79
2022-11-14T03:54:42.152Z,62.70
2022-11-14T03:55:41.394Z,62.70
2022-11-14T03:56:41.347Z,62.59
2022-11-14T03:57:41.370Z,62.70
2022-11-14T03:58:41.324Z,62.70
2022-11-14T03:59:41.580Z,62.70
2022-11-14T04:00:41.335Z,62.79
2022-11-14T04:01:41.325Z,62.59
2022-11-14T04:02:41.403Z,62.70
2022-11-14T04:03:41.295Z,62.70
2022-11-14T04:04:41.223Z,62.59
2022-11-14T04:05:41.320Z,62.70
2022-11-14T04:06:41.321Z,62.79
2022-11-14T04:07:41.224Z,62.70
2022-11-14T04:08:41.298Z,62.59
2022-11-14T04:09:41.190Z,62.70
2022-11-14T04:10:41.155Z,62.70
2022-11-14T04:11:41.674Z,62.79
2022-11-14T04:12:41.232Z,62.49
2022-11-14T04:13:41.124Z,62.59
2022-11-14T04:14:41.094Z,62.09
2022-11-14T04:15:41.062Z,61.99
2022-11-14T04:16:41.066Z,62.39
2022-11-14T04:17:42.598Z,62.39
2022-11-14T04:18:41.024Z,62.59
2022-11-14T04:19:41.227Z,62.79
2022-11-14T04:20:41.239Z,62.59
2022-11-14T04:21:41.090Z,62.79
2022-11-14T04:22:40.980Z,62.89
2022-11-14T04:23:41.317Z,62.70
2022-11-14T04:24:40.955Z,62.79
2022-11-14T04:25:40.980Z,62.99
2022-11-14T04:26:40.926Z,62.79
2022-11-14T04:27:41.067Z,62.79
2022-11-14T04:28:40.895Z,62.79
2022-11-14T04:29:41.287Z,62.89
2022-11-14T04:30:40.873Z,62.99
2022-11-14T04:31:40.899Z,62.99
2022-11-14T04:32:40.863Z,62.89
2022-11-14T04:33:40.886Z,62.89
2022-11-14T04:34:40.806Z,63.29
2022-11-14T04:35:40.880Z,63.09
2022-11-14T04:36:40.799Z,62.99
2022-11-14T04:37:40.777Z,63.09
2022-11-14T04:38:42.214Z,62.99
2022-11-14T04:39:40.858Z,62.99
2022-11-14T04:40:40.775Z,62.89
2022-11-14T04:41:41.344Z,62.89
2022-11-14T04:42:40.720Z,62.79
2022-11-14T04:43:41.019Z,62.70
2022-11-14T04:44:40.771Z,62.99
2022-11-14T04:45:40.657Z,62.99
2022-11-14T04:46:40.641Z,62.89
2022-11-14T04:47:40.727Z,62.79
2022-11-14T04:48:41.007Z,62.99
2022-11-14T04:49:42.532Z,62.79
2022-11-14T04:50:40.595Z,62.79
2022-11-14T04:51:40.597Z,62.89
2022-11-14T04:52:40.595Z,62.89
2022-11-14T04:53:40.764Z,62.99
2022-11-14T04:54:40.572Z,62.89
2022-11-14T04:55:40.560Z,62.89
2022-11-14T04:56:40.515Z,62.72
2022-11-14T04:57:40.528Z,62.70
2022-11-14T04:58:41.149Z,62.72
2022-11-14T04:59:41.360Z,62.89
2022-11-14T05:00:40.438Z,62.89
2022-11-14T05:01:40.509Z,62.79
2022-11-14T05:02:40.436Z,63.02
2022-11-14T05:03:40.436Z,62.82
2022-11-14T05:04:40.434Z,62.82
2022-11-14T05:05:42.226Z,62.89
2022-11-14T05:06:40.354Z,62.62
2022-11-14T05:07:40.403Z,62.79
2022-11-14T05:08:40.985Z,62.92
2022-11-14T05:09:41.347Z,62.92
2022-11-14T05:10:40.371Z,62.92
2022-11-14T05:11:40.605Z,62.99
2022-11-14T05:12:40.299Z,63.02
2022-11-14T05:13:41.335Z,63.02
2022-11-14T05:14:40.307Z,62.92
2022-11-14T05:15:40.261Z,62.92
2022-11-14T05:16:40.414Z,62.92
2022-11-14T05:17:40.578Z,63.02
2022-11-14T05:18:45.886Z,63.22
2022-11-14T05:19:41.283Z,63.02
2022-11-14T05:20:40.180Z,63.12
2022-11-14T05:21:40.173Z,62.92
2022-11-14T05:22:40.140Z,63.02
2022-11-14T05:23:40.229Z,62.72
2022-11-14T05:24:40.285Z,62.92
2022-11-14T05:25:40.281Z,62.92
2022-11-14T05:26:40.298Z,63.02
2022-11-14T05:27:40.173Z,62.92
2022-11-14T05:28:40.232Z,62.92
2022-11-14T05:29:40.767Z,63.02
2022-11-14T05:30:40.036Z,62.82
2022-11-14T05:31:40.261Z,62.92
2022-11-14T05:32:40.015Z,63.02
2022-11-14T05:33:40.048Z,62.82
2022-11-14T05:34:39.970Z,63.02
2022-11-14T05:35:40.341Z,62.82
2022-11-14T05:36:40.518Z,62.72
2022-11-14T05:37:39.992Z,62.72
2022-11-14T05:38:39.928Z,62.52
2022-11-14T05:39:39.914Z,62.52
2022-11-14T05:40:39.890Z,62.72
2022-11-14T05:41:40.220Z,62.92
2022-11-14T05:42:39.869Z,62.82
2022-11-14T05:43:39.877Z,62.92
2022-11-14T05:44:39.850Z,62.82
2022-11-14T05:45:39.819Z,62.79
2022-11-14T05:46:39.828Z,62.79
2022-11-14T05:47:39.956Z,62.89
2022-11-14T05:48:40.014Z,62.79
2022-11-14T05:49:39.822Z,62.79
2022-11-14T05:50:39.758Z,62.79
2022-11-14T05:51:39.747Z,62.79
2022-11-14T05:52:39.724Z,62.79
2022-11-14T05:53:39.963Z,62.70
2022-11-14T05:54:39.748Z,62.70
2022-11-14T05:55:39.911Z,62.70
2022-11-14T05:56:40.643Z,62.59
2022-11-14T05:57:39.694Z,62.70
2022-11-14T05:58:39.714Z,62.70
2022-11-14T05:59:39.732Z,62.59
2022-11-14T06:00:45.764Z,62.59
2022-11-14T06:01:40.698Z,62.49
2022-11-14T06:02:39.630Z,62.49
2022-11-14T06:03:39.602Z,62.49
2022-11-14T06:04:39.563Z,62.49
2022-11-14T06:05:39.635Z,62.39
2022-11-14T06:06:39.539Z,62.37
2022-11-14T06:07:39.649Z,62.49
2022-11-14T06:08:39.511Z,62.46
2022-11-14T06:09:39.499Z,62.46
2022-11-14T06:10:39.581Z,62.46
2022-11-14T06:11:39.631Z,62.46
2022-11-14T06:12:39.492Z,62.46
2022-11-14T06:13:39.657Z,62.37
2022-11-14T06:14:39.571Z,62.37
2022-11-14T06:15:39.423Z,62.46
2022-11-14T06:16:39.551Z,62.46
2022-11-14T06:17:39.548Z,62.37
2022-11-14T06:18:39.374Z,62.26
2022-11-14T06:19:39.943Z,62.26
2022-11-14T06:20:39.353Z,62.26
2022-11-14T06:21:39.344Z,62.26
2022-11-14T06:22:39.541Z,62.26
2022-11-14T06:23:39.838Z,62.26
2022-11-14T06:24:39.286Z,62.26
2022-11-14T06:25:39.794Z,62.16
2022-11-14T06:26:39.275Z,62.16
2022-11-14T06:27:40.894Z,62.16
2022-11-14T06:28:39.223Z,62.06
2022-11-14T06:29:39.514Z,62.16
2022-11-14T06:30:39.211Z,62.06
2022-11-14T06:31:39.530Z,62.06
2022-11-14T06:32:39.202Z,61.96
2022-11-14T06:33:39.202Z,62.06
2022-11-14T06:34:39.146Z,62.06
2022-11-14T06:35:39.500Z,62.06
2022-11-14T06:36:39.113Z,61.93
2022-11-14T06:37:39.163Z,61.76
2022-11-14T06:38:39.209Z,61.96
2022-11-14T06:39:39.202Z,61.96
2022-11-14T06:40:39.066Z,61.83
2022-11-14T06:41:39.574Z,61.83
2022-11-14T06:42:39.124Z,61.83
2022-11-14T06:43:39.232Z,61.83
2022-11-14T06:44:39.031Z,61.83
2022-11-14T06:45:39.015Z,61.83
2022-11-14T06:46:39.004Z,61.73
2022-11-14T06:47:39.175Z,61.73
2022-11-14T06:48:38.971Z,61.63
2022-11-14T06:49:40.700Z,61.63
2022-11-14T06:50:39.163Z,61.63
2022-11-14T06:51:38.906Z,61.54
2022-11-14T06:52:38.936Z,61.54
2022-11-14T06:53:39.559Z,61.43
2022-11-14T06:54:38.986Z,61.54
2022-11-14T06:55:38.886Z,61.54
2022-11-14T06:56:38.853Z,61.73
2022-11-14T06:57:38.880Z,61.73
2022-11-14T06:58:38.843Z,61.73
2022-11-14T06:59:39.140Z,61.93
2022-11-14T07:00:38.785Z,62.13
2022-11-14T07:01:38.810Z,61.93
2022-11-14T07:02:39.785Z,62.13
2022-11-14T07:03:38.748Z,62.04
2022-11-14T07:04:38.736Z,62.63
2022-11-14T07:05:40.274Z,62.53
2022-11-14T07:06:38.719Z,62.73
2022-11-14T07:07:38.816Z,62.83
2022-11-14T07:08:38.830Z,63.13
2022-11-14T07:09:38.668Z,63.13
2022-11-14T07:10:39.218Z,62.93
2022-11-14T07:11:38.822Z,62.83
2022-11-14T07:12:38.715Z,62.83
2022-11-14T07:13:38.641Z,62.93
2022-11-14T07:14:38.597Z,62.73
2022-11-14T07:15:38.592Z,62.63
2022-11-14T07:16:38.598Z,62.53
2022-11-14T07:17:39.002Z,62.43
2022-11-14T07:18:38.820Z,62.34
2022-11-14T07:19:38.636Z,62.23
2022-11-14T07:20:38.741Z,62.34
2022-11-14T07:21:38.519Z,62.23
2022-11-14T07:22:39.956Z,62.34
2022-11-14T07:23:39.301Z,62.43
2022-11-14T07:24:38.511Z,62.34
2022-11-14T07:25:38.518Z,62.23
2022-11-14T07:26:39.391Z,62.34
2022-11-14T07:27:38.508Z,62.34
2022-11-14T07:28:38.419Z,62.34
2022-11-14T07:29:38.538Z,62.34
2022-11-14T07:30:38.635Z,62.23
2022-11-14T07:31:38.476Z,62.23
2022-11-14T07:32:38.374Z,62.34
2022-11-14T07:33:38.344Z,62.34
2022-11-14T07:34:38.505Z,62.23
2022-11-14T07:35:38.540Z,62.23
2022-11-14T07:36:38.295Z,62.23
2022-11-14T07:37:38.472Z,62.23
2022-11-14T07:38:38.271Z,62.23
2022-11-14T07:39:38.262Z,62.13
2022-11-14T07:40:38.284Z,62.13
2022-11-14T07:41:38.454Z,62.13
2022-11-14T07:42:38.480Z,62.23
2022-11-14T07:43:38.243Z,62.23
2022-11-14T07:44:38.197Z,62.13
2022-11-14T07:45:38.224Z,62.13
2022-11-14T07:46:38.154Z,62.13
2022-11-14T07:47:38.413Z,62.13
2022-11-14T07:48:38.121Z,62.23
2022-11-14T07:49:38.806Z,62.23
2022-11-14T07:50:38.529Z,62.13
2022-11-14T07:51:38.109Z,62.13
2022-11-14T07:52:38.062Z,62.13
2022-11-14T07:53:38.698Z,62.13
2022-11-14T07:54:39.022Z,62.13
2022-11-14T07:55:38.118Z,62.13
2022-11-14T07:56:38.067Z,62.04
2022-11-14T07:57:41.898Z,62.04
2022-11-14T07:58:39.139Z,62.04
2022-11-14T07:59:38.044Z,62.04
2022-11-14T08:00:39.478Z,61.93
2022-11-14T08:01:38.032Z,62.04
2022-11-14T08:02:37.940Z,62.04
2022-11-14T08:03:42.247Z,61.93
2022-11-14T08:04:39.595Z,61.93
2022-11-14T08:05:38.366Z,62.04
2022-11-14T08:06:37.911Z,62.04
2022-11-14T08:07:38.152Z,62.04
2022-11-14T08:08:39.315Z,61.93
2022-11-14T08:09:38.133Z,61.93
2022-11-14T08:10:37.974Z,61.83
2022-11-14T08:11:37.804Z,61.93
2022-11-14T08:12:37.914Z,61.83
2022-11-14T08:13:38.077Z,61.83
2022-11-14T08:14:37.784Z,61.93
2022-11-14T08:15:37.769Z,61.83
2022-11-14T08:16:37.881Z,61.83
2022-11-14T08:17:37.802Z,61.83
2022-11-14T08:18:37.736Z,61.83
2022-11-14T08:19:38.536Z,61.83
2022-11-14T08:20:37.744Z,61.93
2022-11-14T08:21:37.733Z,61.83
2022-11-14T08:22:37.849Z,61.93
2022-11-14T08:23:37.702Z,61.83
2022-11-14T08:24:38.150Z,61.83
2022-11-14T08:25:37.743Z,61.73
2022-11-14T08:26:37.741Z,61.73
2022-11-14T08:27:37.840Z,61.73
2022-11-14T08:28:37.707Z,61.73
2022-11-14T08:29:37.631Z,61.73
2022-11-14T08:30:37.655Z,61.73
2022-11-14T08:31:37.660Z,61.73
2022-11-14T08:32:38.299Z,61.73
2022-11-14T08:33:37.593Z,61.73
2022-11-14T08:34:37.692Z,61.63
2022-11-14T08:35:37.497Z,61.73
2022-11-14T08:36:37.474Z,61.73
2022-11-14T08:37:37.477Z,61.73
2022-11-14T08:38:37.441Z,61.63
2022-11-14T08:39:38.066Z,61.63
2022-11-14T08:40:37.529Z,61.63
2022-11-14T08:41:37.423Z,61.63
2022-11-14T08:42:37.832Z,61.63
2022-11-14T08:43:37.585Z,61.63
2022-11-14T08:44:37.365Z,61.83
2022-11-14T08:45:37.352Z,61.83
2022-11-14T08:46:37.675Z,61.93
2022-11-14T08:47:37.848Z,61.93
2022-11-14T08:48:37.672Z,61.83
2022-11-14T08:49:37.342Z,61.73
2022-11-14T08:50:37.287Z,61.73
2022-11-14T08:51:37.286Z,61.63
2022-11-14T08:52:37.444Z,61.73
2022-11-14T08:53:37.280Z,61.63
2022-11-14T08:54:37.396Z,61.63
2022-11-14T08:55:37.228Z,61.63
2022-11-14T08:56:37.211Z,61.63
2022-11-14T08:57:37.384Z,61.63
2022-11-14T08:58:37.267Z,61.63
2022-11-14T08:59:37.172Z,61.63
2022-11-14T09:00:37.122Z,61.63
2022-11-14T09:01:37.162Z,61.63
2022-11-14T09:02:38.061Z,61.63
2022-11-14T09:03:37.228Z,61.63
2022-11-14T09:04:37.383Z,61.63
2022-11-14T09:05:37.166Z,61.63
2022-11-14T09:06:37.063Z,61.54
2022-11-14T09:07:37.729Z,61.54
2022-11-14T09:08:37.045Z,61.54
2022-11-14T09:09:37.330Z,61.43
2022-11-14T09:10:37.218Z,61.54
2022-11-14T09:11:36.980Z,61.63
2022-11-14T09:12:38.296Z,61.54
2022-11-14T09:13:37.032Z,61.54
2022-11-14T09:14:37.305Z,61.54
2022-11-14T09:15:37.029Z,61.54
2022-11-14T09:16:37.055Z,61.54
2022-11-14T09:17:37.887Z,61.43
2022-11-14T09:18:37.011Z,61.54
2022-11-14T09:19:37.309Z,61.54
2022-11-14T09:20:40.052Z,61.43
2022-11-14T09:21:37.276Z,61.43
2022-11-14T09:22:36.906Z,61.43
2022-11-14T09:23:36.826Z,61.43
2022-11-14T09:24:36.815Z,61.43
2022-11-14T09:25:36.794Z,61.43
2022-11-14T09:26:36.993Z,61.43
2022-11-14T09:27:36.998Z,61.63
2022-11-14T09:28:37.005Z,61.63
2022-11-14T09:29:36.742Z,61.73
2022-11-14T09:30:37.898Z,61.73
2022-11-14T09:31:36.730Z,61.73
2022-11-14T09:32:36.999Z,61.93
2022-11-14T09:33:36.677Z,61.93
2022-11-14T09:34:36.901Z,62.23
2022-11-14T09:35:36.700Z,62.63
2022-11-14T09:36:36.630Z,62.50
2022-11-14T09:37:39.090Z,62.83
2022-11-14T09:38:38.653Z,62.73
2022-11-14T09:39:36.633Z,62.73
2022-11-14T09:40:36.974Z,62.90
2022-11-14T09:41:36.576Z,63.00
2022-11-14T09:42:36.793Z,63.20
2022-11-14T09:43:36.573Z,63.10
2022-11-14T09:44:36.550Z,63.30
2022-11-14T09:45:36.568Z,63.30
2022-11-14T09:46:36.577Z,63.40
2022-11-14T09:47:36.496Z,63.40
2022-11-14T09:48:37.926Z,63.40
2022-11-14T09:49:37.890Z,63.40
2022-11-14T09:50:37.185Z,63.40
2022-11-14T09:51:36.426Z,63.40
2022-11-14T09:52:36.510Z,63.30
2022-11-14T09:53:36.418Z,63.30
2022-11-14T09:54:36.466Z,63.30
2022-11-14T09:55:37.410Z,63.20
2022-11-14T09:56:36.413Z,63.20
2022-11-14T09:57:36.469Z,63.20
2022-11-14T09:58:36.422Z,63.20
2022-11-14T09:59:36.454Z,63.10
2022-11-14T10:00:36.529Z,63.10
2022-11-14T10:01:36.361Z,63.00
2022-11-14T10:02:36.437Z,63.00
2022-11-14T10:03:36.313Z,63.00
2022-11-14T10:04:36.361Z,62.90
2022-11-14T10:05:36.355Z,63.00
2022-11-14T10:06:36.308Z,63.00
2022-11-14T10:07:36.423Z,63.00
2022-11-14T10:08:36.236Z,62.90
2022-11-14T10:09:37.036Z,62.90
2022-11-14T10:10:38.853Z,62.90
2022-11-14T10:11:36.155Z,62.90
2022-11-14T10:12:36.179Z,62.90
2022-11-14T10:13:36.281Z,62.90
2022-11-14T10:14:36.177Z,62.90
2022-11-14T10:15:36.263Z,62.81
2022-11-14T10:16:36.352Z,62.81
2022-11-14T10:17:36.271Z,62.81
2022-11-14T10:18:36.063Z,62.77
2022-11-14T10:19:41.459Z,62.67
2022-11-14T10:20:37.104Z,62.67
2022-11-14T10:21:36.009Z,62.67
2022-11-14T10:22:36.093Z,62.70
2022-11-14T10:23:36.006Z,62.70
2022-11-14T10:24:35.992Z,62.57
2022-11-14T10:25:39.614Z,62.57
2022-11-14T10:26:37.170Z,62.67
2022-11-14T10:27:36.167Z,62.67
2022-11-14T10:28:36.033Z,62.57
2022-11-14T10:29:35.951Z,62.48
2022-11-14T10:30:35.972Z,62.48
2022-11-14T10:31:35.970Z,62.48
2022-11-14T10:32:35.973Z,62.48
2022-11-14T10:33:35.885Z,62.48
2022-11-14T10:34:35.920Z,62.48
2022-11-14T10:35:36.163Z,62.37
2022-11-14T10:36:35.813Z,62.37
2022-11-14T10:37:35.835Z,62.37
2022-11-14T10:38:36.040Z,62.27
2022-11-14T10:39:35.790Z,62.27
2022-11-14T10:40:35.836Z,62.27
2022-11-14T10:41:56.293Z,62.27
2022-11-14T10:42:36.855Z,62.18
2022-11-14T10:43:36.119Z,62.07
2022-11-14T10:44:35.705Z,62.07
2022-11-14T10:45:35.740Z,61.98
2022-11-14T10:46:36.740Z,61.98
2022-11-14T10:47:35.679Z,61.87
2022-11-14T10:48:35.685Z,62.07
2022-11-14T10:49:35.611Z,62.07
2022-11-14T10:50:35.608Z,62.07
2022-11-14T10:51:35.591Z,61.98
2022-11-14T10:52:35.703Z,61.98
2022-11-14T10:53:35.607Z,61.98
2022-11-14T10:54:35.783Z,61.87
2022-11-14T10:56:02.588Z,61.87
2022-11-14T10:56:36.537Z,61.87
2022-11-14T10:57:35.595Z,61.87
2022-11-14T10:58:48.025Z,61.87
2022-11-14T10:59:36.553Z,61.87
2022-11-14T11:00:35.461Z,61.77
2022-11-14T11:01:37.010Z,61.77
2022-11-14T11:02:36.516Z,61.77
2022-11-14T11:03:35.481Z,61.77
2022-11-14T11:04:35.620Z,61.77
2022-11-14T11:05:35.466Z,61.77
2022-11-14T11:06:35.828Z,61.77
2022-11-14T11:07:36.289Z,61.77
2022-11-14T11:08:43.069Z,61.68
2022-11-14T11:09:40.653Z,61.77
2022-11-14T11:10:36.386Z,61.87
2022-11-14T11:11:35.399Z,61.68
2022-11-14T11:12:35.872Z,61.87
2022-11-14T11:13:35.339Z,61.87
2022-11-14T11:14:35.368Z,61.87
2022-11-14T11:15:35.794Z,61.87
2022-11-14T11:16:35.283Z,61.87
2022-11-14T11:17:41.762Z,62.07
2022-11-14T11:18:36.216Z,62.27
2022-11-14T11:19:35.207Z,62.77
2022-11-14T11:20:35.224Z,62.67
2022-11-14T11:21:35.545Z,62.77
2022-11-14T11:22:35.231Z,62.67
2022-11-14T11:23:35.158Z,62.87
2022-11-14T11:24:35.122Z,62.87
2022-11-14T11:25:35.136Z,62.87
2022-11-14T11:26:35.205Z,62.87
2022-11-14T11:27:35.434Z,62.97
2022-11-14T11:28:35.133Z,62.97
2022-11-14T11:29:35.056Z,62.67
2022-11-14T11:30:35.120Z,62.77
2022-11-14T11:31:35.203Z,62.87
2022-11-14T11:32:35.201Z,62.97
2022-11-14T11:33:35.157Z,62.87
2022-11-14T11:34:35.034Z,62.87
2022-11-14T11:35:35.009Z,62.87
2022-11-14T11:36:34.972Z,62.87
2022-11-14T11:37:35.167Z,62.87
2022-11-14T11:38:35.388Z,62.87
2022-11-14T11:39:35.163Z,62.87
2022-11-14T11:40:34.982Z,62.87
2022-11-14T11:43:23.821Z,62.87
2022-11-14T11:43:40.026Z,62.87
2022-11-14T11:44:34.949Z,62.87
2022-11-14T11:45:34.940Z,62.57
2022-11-14T11:46:34.956Z,62.77
2022-11-14T11:47:34.851Z,62.77
2022-11-14T11:48:34.836Z,62.77
2022-11-14T11:49:34.993Z,62.87
2022-11-14T11:50:34.777Z,62.97
2022-11-14T11:51:34.866Z,62.77
2022-11-14T11:52:35.769Z,62.87
2022-11-14T11:53:34.739Z,62.77
2022-11-14T11:54:34.787Z,62.87
2022-11-14T11:55:34.717Z,62.87
2022-11-14T11:56:34.688Z,62.97
2022-11-14T11:57:34.850Z,62.97
2022-11-14T11:58:34.922Z,62.97
2022-11-14T11:59:34.818Z,62.87
2022-11-14T12:00:34.641Z,62.87
2022-11-14T12:01:34.786Z,62.97
2022-11-14T12:02:34.782Z,62.87
2022-11-14T12:03:35.273Z,62.87
2022-11-14T12:04:34.753Z,62.87
2022-11-14T12:05:34.586Z,62.87
2022-11-14T12:06:34.643Z,62.74
2022-11-14T12:07:34.674Z,62.77
2022-11-14T12:08:34.523Z,62.74
2022-11-14T12:10:03.624Z,62.64
2022-11-14T12:10:35.662Z,62.74
2022-11-14T12:11:35.699Z,62.64
2022-11-14T12:12:34.614Z,62.64
2022-11-14T12:13:34.488Z,62.64
2022-11-14T12:14:34.447Z,62.74
2022-11-14T12:15:34.632Z,62.54
2022-11-14T12:16:34.566Z,62.45
2022-11-14T12:17:34.400Z,62.24
2022-11-14T12:18:34.405Z,62.15
2022-11-14T12:19:34.513Z,62.04
2022-11-14T12:20:35.123Z,61.94
2022-11-14T12:21:34.974Z,61.85
2022-11-14T12:22:34.483Z,61.85
2022-11-14T12:23:34.348Z,61.85
2022-11-14T12:24:34.342Z,61.74
2022-11-14T12:25:35.352Z,61.74
2022-11-14T12:26:34.343Z,61.65
2022-11-14T12:27:35.323Z,61.74
2022-11-14T12:28:34.308Z,61.85
2022-11-14T12:29:34.265Z,61.85
2022-11-14T12:30:34.890Z,61.91
2022-11-14T12:31:36.047Z,61.91
2022-11-14T12:32:34.236Z,61.91
2022-11-14T12:33:34.305Z,61.91
2022-11-14T12:34:34.232Z,61.91
2022-11-14T12:35:35.441Z,61.91
2022-11-14T12:36:34.469Z,61.91
2022-11-14T12:37:34.232Z,61.91
2022-11-14T12:38:34.135Z,61.82
2022-11-14T12:39:34.258Z,61.82
2022-11-14T12:40:34.715Z,61.82
2022-11-14T12:41:34.079Z,61.91
2022-11-14T12:42:34.165Z,61.82
2022-11-14T12:43:36.951Z,61.91
2022-11-14T12:44:34.124Z,61.82
2022-11-14T12:45:34.237Z,61.91
2022-11-14T12:46:34.126Z,61.88
2022-11-14T12:47:34.031Z,61.88
2022-11-14T12:48:34.056Z,61.88
2022-11-14T12:49:35.400Z,61.88
2022-11-14T12:50:34.109Z,61.79
2022-11-14T12:51:34.173Z,61.88
2022-11-14T12:52:33.979Z,61.88
2022-11-14T12:53:33.994Z,61.88